sensor_id;sensor_type;location;lat;lon;timestamp;pressure;altitude;pressure_sealevel;temperature;humidity
32747;BME280;19118;50.860;13.662;2023-02-17T00:04:30;97301.97;;;5.78;100.00
32747;BME280;19118;50.860;13.662;2023-02-17T00:09:30;97297.31;;;5.56;100.00
32747;BME280;19118;50.860;13.662;2023-02-17T00:14:30;97306.28;;;5.45;100.00
32747;BME280;19118;50.860;13.662;2023-02-17T00:19:31;97303.81;;;5.52;100.00
32747;BME280;19118;50.860;13.662;2023-02-17T00:24:32;97307.63;;;5.58;100.00
32747;BME280;19118;50.860;13.662;2023-02-17T00:29:33;97305.03;;;5.74;100.00
32747;BME280;19118;50.860;13.662;2023-02-17T00:34:33;97301.53;;;5.99;100.00
32747;BME280;19118;50.860;13.662;2023-02-17T00:39:34;97286.47;;;6.01;100.00
32747;BME280;19118;50.860;13.662;2023-02-17T00:44:34;97291.59;;;5.77;100.00
32747;BME280;19118;50.860;13.662;2023-02-17T00:49:34;97291.44;;;5.70;100.00
32747;BME280;19118;50.860;13.662;2023-02-17T00:54:35;97289.75;;;5.61;100.00
32747;BME280;19118;50.860;13.662;2023-02-17T00:59:35;97287.91;;;5.53;100.00
32747;BME280;19118;50.860;13.662;2023-02-17T01:04:35;97272.72;;;5.65;100.00
32747;BME280;19118;50.860;13.662;2023-02-17T01:09:36;97275.03;;;5.68;100.00
32747;BME280;19118;50.860;13.662;2023-02-17T01:14:37;97278.84;;;5.82;100.00
32747;BME280;19118;50.860;13.662;2023-02-17T01:19:37;97284.72;;;5.76;100.00
32747;BME280;19118;50.860;13.662;2023-02-17T01:24:38;97264.72;;;5.83;100.00
32747;BME280;19118;50.860;13.662;2023-02-17T01:29:39;97265.59;;;5.92;100.00
32747;BME280;19118;50.860;13.662;2023-02-17T01:34:39;97255.38;;;5.89;100.00
32747;BME280;19118;50.860;13.662;2023-02-17T01:39:40;97252.97;;;5.95;100.00
32747;BME280;19118;50.860;13.662;2023-02-17T01:50:20;97233.94;;;5.93;100.00
32747;BME280;19118;50.860;13.662;2023-02-17T01:55:22;97235.59;;;6.02;100.00
32747;BME280;19118;50.860;13.662;2023-02-17T02:00:25;97229.69;;;6.17;100.00
32747;BME280;19118;50.860;13.662;2023-02-17T02:05:27;97222.13;;;6.22;100.00
32747;BME280;19118;50.860;13.662;2023-02-17T02:10:27;97210.81;;;6.29;100.00
32747;BME280;19118;50.860;13.662;2023-02-17T02:15:33;97195.06;;;6.21;100.00
32747;BME280;19118;50.860;13.662;2023-02-17T02:26:45;97191.47;;;6.06;100.00
32747;BME280;19118;50.860;13.662;2023-02-17T02:37:17;97168.16;;;6.27;100.00
32747;BME280;19118;50.860;13.662;2023-02-17T02:42:22;97168.78;;;6.29;100.00
32747;BME280;19118;50.860;13.662;2023-02-17T02:47:41;97159.44;;;6.35;100.00
32747;BME280;19118;50.860;13.662;2023-02-17T02:58:01;97135.44;;;6.46;100.00
32747;BME280;19118;50.860;13.662;2023-02-17T03:03:18;97142.63;;;6.60;100.00
32747;BME280;19118;50.860;13.662;2023-02-17T03:08:37;97139.00;;;6.61;100.00
32747;BME280;19118;50.860;13.662;2023-02-17T03:13:39;97147.88;;;6.60;100.00
32747;BME280;19118;50.860;13.662;2023-02-17T03:18:43;97143.28;;;6.54;100.00
32747;BME280;19118;50.860;13.662;2023-02-17T03:23:43;97144.09;;;6.55;100.00
32747;BME280;19118;50.860;13.662;2023-02-17T03:28:44;97145.16;;;6.46;100.00
32747;BME280;19118;50.860;13.662;2023-02-17T03:33:44;97131.03;;;6.38;100.00
32747;BME280;19118;50.860;13.662;2023-02-17T03:38:45;97131.19;;;6.37;100.00
32747;BME280;19118;50.860;13.662;2023-02-17T03:43:45;97115.75;;;6.34;100.00
32747;BME280;19118;50.860;13.662;2023-02-17T03:48:45;97121.34;;;6.31;100.00
32747;BME280;19118;50.860;13.662;2023-02-17T03:53:46;97128.94;;;6.18;100.00
32747;BME280;19118;50.860;13.662;2023-02-17T03:58:47;97125.50;;;6.09;100.00
32747;BME280;19118;50.860;13.662;2023-02-17T04:03:47;97122.03;;;6.08;100.00
32747;BME280;19118;50.860;13.662;2023-02-17T04:08:48;97122.88;;;6.09;100.00
32747;BME280;19118;50.860;13.662;2023-02-17T04:13:48;97124.53;;;6.02;100.00
32747;BME280;19118;50.860;13.662;2023-02-17T04:18:49;97127.00;;;5.95;100.00
32747;BME280;19118;50.860;13.662;2023-02-17T04:23:49;97136.31;;;5.90;100.00
32747;BME280;19118;50.860;13.662;2023-02-17T04:28:49;97135.00;;;5.85;100.00
32747;BME280;19118;50.860;13.662;2023-02-17T04:33:50;97140.28;;;5.94;100.00
32747;BME280;19118;50.860;13.662;2023-02-17T04:38:50;97134.84;;;5.79;100.00
32747;BME280;19118;50.860;13.662;2023-02-17T04:43:51;97133.19;;;5.70;100.00
32747;BME280;19118;50.860;13.662;2023-02-17T04:48:51;97135.97;;;5.60;100.00
32747;BME280;19118;50.860;13.662;2023-02-17T04:53:51;97141.41;;;5.67;100.00
32747;BME280;19118;50.860;13.662;2023-02-17T04:58:52;97142.06;;;5.69;100.00
32747;BME280;19118;50.860;13.662;2023-02-17T05:03:52;97143.03;;;5.60;100.00
32747;BME280;19118;50.860;13.662;2023-02-17T05:08:52;97149.91;;;5.61;100.00
32747;BME280;19118;50.860;13.662;2023-02-17T05:13:53;97152.84;;;5.66;100.00
32747;BME280;19118;50.860;13.662;2023-02-17T05:18:53;97149.94;;;5.69;100.00
32747;BME280;19118;50.860;13.662;2023-02-17T05:23:53;97152.88;;;5.74;100.00
32747;BME280;19118;50.860;13.662;2023-02-17T05:28:54;97144.81;;;5.75;100.00
32747;BME280;19118;50.860;13.662;2023-02-17T05:33:54;97143.19;;;5.82;100.00
32747;BME280;19118;50.860;13.662;2023-02-17T05:38:55;97150.41;;;5.89;100.00
32747;BME280;19118;50.860;13.662;2023-02-17T05:43:55;97156.19;;;5.92;100.00
32747;BME280;19118;50.860;13.662;2023-02-17T05:48:55;97152.91;;;5.98;100.00
32747;BME280;19118;50.860;13.662;2023-02-17T05:53:56;97146.00;;;6.05;100.00
32747;BME280;19118;50.860;13.662;2023-02-17T05:58:56;97145.38;;;6.03;100.00
32747;BME280;19118;50.860;13.662;2023-02-17T06:03:56;97130.56;;;6.10;100.00
32747;BME280;19118;50.860;13.662;2023-02-17T06:08:57;97117.94;;;6.06;100.00
32747;BME280;19118;50.860;13.662;2023-02-17T06:13:57;97119.28;;;6.02;100.00
32747;BME280;19118;50.860;13.662;2023-02-17T06:18:57;97121.41;;;6.06;100.00
32747;BME280;19118;50.860;13.662;2023-02-17T06:23:59;97121.56;;;6.13;100.00
32747;BME280;19118;50.860;13.662;2023-02-17T06:28:59;97118.72;;;6.23;100.00
32747;BME280;19118;50.860;13.662;2023-02-17T06:34:00;97109.22;;;6.30;100.00
32747;BME280;19118;50.860;13.662;2023-02-17T06:39:00;97109.38;;;6.36;100.00
32747;BME280;19118;50.860;13.662;2023-02-17T06:44:00;97109.84;;;6.40;100.00
32747;BME280;19118;50.860;13.662;2023-02-17T06:49:01;97108.84;;;6.49;100.00
32747;BME280;19118;50.860;13.662;2023-02-17T06:54:01;97108.84;;;6.49;100.00
32747;BME280;19118;50.860;13.662;2023-02-17T06:59:02;97087.47;;;6.52;100.00
32747;BME280;19118;50.860;13.662;2023-02-17T07:04:03;97098.31;;;6.57;100.00
32747;BME280;19118;50.860;13.662;2023-02-17T07:09:03;97093.91;;;6.50;100.00
32747;BME280;19118;50.860;13.662;2023-02-17T07:14:04;97087.31;;;6.54;100.00
32747;BME280;19118;50.860;13.662;2023-02-17T07:19:04;97091.56;;;6.55;100.00
32747;BME280;19118;50.860;13.662;2023-02-17T07:24:05;97093.38;;;6.54;100.00
32747;BME280;19118;50.860;13.662;2023-02-17T07:29:06;97084.47;;;6.63;100.00
32747;BME280;19118;50.860;13.662;2023-02-17T07:34:07;97097.31;;;6.58;100.00
32747;BME280;19118;50.860;13.662;2023-02-17T07:39:07;97083.19;;;6.59;100.00
32747;BME280;19118;50.860;13.662;2023-02-17T07:44:08;97093.34;;;6.62;100.00
32747;BME280;19118;50.860;13.662;2023-02-17T07:49:09;97080.81;;;6.81;100.00
32747;BME280;19118;50.860;13.662;2023-02-17T07:54:10;97080.81;;;6.81;100.00
32747;BME280;19118;50.860;13.662;2023-02-17T07:59:12;97070.22;;;6.89;100.00
32747;BME280;19118;50.860;13.662;2023-02-17T08:04:13;97047.88;;;6.93;100.00
32747;BME280;19118;50.860;13.662;2023-02-17T08:09:13;97037.97;;;7.03;100.00
32747;BME280;19118;50.860;13.662;2023-02-17T08:14:32;97039.25;;;7.07;100.00
32747;BME280;19118;50.860;13.662;2023-02-17T08:19:33;97039.47;;;7.20;100.00
32747;BME280;19118;50.860;13.662;2023-02-17T08:24:33;97045.59;;;7.36;100.00
32747;BME280;19118;50.860;13.662;2023-02-17T08:29:33;97031.34;;;7.53;100.00
32747;BME280;19118;50.860;13.662;2023-02-17T08:34:34;97029.97;;;7.57;100.00
32747;BME280;19118;50.860;13.662;2023-02-17T08:39:35;97025.09;;;7.69;100.00
32747;BME280;19118;50.860;13.662;2023-02-17T08:44:36;97026.47;;;7.65;100.00
32747;BME280;19118;50.860;13.662;2023-02-17T08:49:36;97024.81;;;7.49;100.00
32747;BME280;19118;50.860;13.662;2023-02-17T08:54:37;97015.38;;;7.54;100.00
32747;BME280;19118;50.860;13.662;2023-02-17T08:59:37;97008.59;;;7.60;100.00
32747;BME280;19118;50.860;13.662;2023-02-17T09:04:38;97008.53;;;7.83;100.00
32747;BME280;19118;50.860;13.662;2023-02-17T09:09:38;97002.66;;;7.96;100.00
32747;BME280;19118;50.860;13.662;2023-02-17T09:14:39;96984.19;;;8.10;100.00
32747;BME280;19118;50.860;13.662;2023-02-17T09:19:39;96972.50;;;8.42;100.00
32747;BME280;19118;50.860;13.662;2023-02-17T09:24:40;96959.75;;;8.61;100.00
32747;BME280;19118;50.860;13.662;2023-02-17T09:29:40;96948.19;;;8.83;100.00
32747;BME280;19118;50.860;13.662;2023-02-17T09:34:40;96949.81;;;9.27;100.00
32747;BME280;19118;50.860;13.662;2023-02-17T09:39:48;96965.41;;;9.50;100.00
32747;BME280;19118;50.860;13.662;2023-02-17T09:45:09;96961.03;;;9.57;100.00
32747;BME280;19118;50.860;13.662;2023-02-17T09:50:39;96945.31;;;9.77;100.00
32747;BME280;19118;50.860;13.662;2023-02-17T09:55:44;96955.41;;;9.67;100.00
32747;BME280;19118;50.860;13.662;2023-02-17T10:00:49;96943.69;;;9.76;100.00
32747;BME280;19118;50.860;13.662;2023-02-17T10:05:59;96941.31;;;9.87;100.00
32747;BME280;19118;50.860;13.662;2023-02-17T10:11:12;96926.75;;;9.63;100.00
32747;BME280;19118;50.860;13.662;2023-02-17T10:16:22;96923.72;;;9.11;100.00
32747;BME280;19118;50.860;13.662;2023-02-17T10:21:54;96937.03;;;9.02;100.00
32747;BME280;19118;50.860;13.662;2023-02-17T10:32:24;96925.19;;;9.41;100.00
32747;BME280;19118;50.860;13.662;2023-02-17T10:42:33;96887.75;;;10.00;100.00
32747;BME280;19118;50.860;13.662;2023-02-17T10:47:35;96876.81;;;10.10;100.00
32747;BME280;19118;50.860;13.662;2023-02-17T10:52:39;96859.88;;;10.45;100.00
32747;BME280;19118;50.860;13.662;2023-02-17T10:57:40;96855.00;;;10.42;100.00
32747;BME280;19118;50.860;13.662;2023-02-17T11:02:47;96846.06;;;10.50;100.00
32747;BME280;19118;50.860;13.662;2023-02-17T11:07:54;96836.75;;;10.81;100.00
32747;BME280;19118;50.860;13.662;2023-02-17T11:12:56;96842.03;;;10.81;100.00
32747;BME280;19118;50.860;13.662;2023-02-17T11:17:59;96825.53;;;10.59;100.00
32747;BME280;19118;50.860;13.662;2023-02-17T11:23:20;96829.53;;;10.22;100.00
32747;BME280;19118;50.860;13.662;2023-02-17T11:28:22;96813.25;;;10.25;100.00
32747;BME280;19118;50.860;13.662;2023-02-17T11:33:35;96807.06;;;10.04;100.00
32747;BME280;19118;50.860;13.662;2023-02-17T11:43:53;96767.13;;;10.27;100.00
32747;BME280;19118;50.860;13.662;2023-02-17T11:49:24;96775.06;;;10.34;100.00
32747;BME280;19118;50.860;13.662;2023-02-17T11:54:35;96781.75;;;10.30;100.00
32747;BME280;19118;50.860;13.662;2023-02-17T12:10:09;96747.34;;;9.97;100.00
32747;BME280;19118;50.860;13.662;2023-02-17T12:15:28;96754.53;;;10.23;100.00
32747;BME280;19118;50.860;13.662;2023-02-17T12:31:09;96730.94;;;10.47;100.00
32747;BME280;19118;50.860;13.662;2023-02-17T12:36:15;96726.25;;;10.30;100.00
32747;BME280;19118;50.860;13.662;2023-02-17T12:41:21;96715.28;;;10.39;100.00
32747;BME280;19118;50.860;13.662;2023-02-17T12:46:35;96708.56;;;10.50;100.00
32747;BME280;19118;50.860;13.662;2023-02-17T12:51:40;96680.88;;;10.72;100.00
32747;BME280;19118;50.860;13.662;2023-02-17T13:02:18;96709.34;;;10.84;100.00
32747;BME280;19118;50.860;13.662;2023-02-17T13:07:49;96691.44;;;10.86;100.00
32747;BME280;19118;50.860;13.662;2023-02-17T13:12:57;96694.28;;;10.84;100.00
32747;BME280;19118;50.860;13.662;2023-02-17T13:18:01;96669.00;;;11.08;100.00
32747;BME280;19118;50.860;13.662;2023-02-17T13:23:09;96663.28;;;11.18;100.00
32747;BME280;19118;50.860;13.662;2023-02-17T13:28:31;96671.47;;;11.03;100.00
32747;BME280;19118;50.860;13.662;2023-02-17T13:33:40;96628.13;;;10.97;100.00
32747;BME280;19118;50.860;13.662;2023-02-17T13:38:51;96623.63;;;10.98;100.00
32747;BME280;19118;50.860;13.662;2023-02-17T13:43:54;96661.50;;;11.05;100.00
32747;BME280;19118;50.860;13.662;2023-02-17T13:49:03;96631.13;;;11.07;100.00
32747;BME280;19118;50.860;13.662;2023-02-17T13:54:07;96636.41;;;11.14;100.00
32747;BME280;19118;50.860;13.662;2023-02-17T13:59:16;96627.06;;;11.12;100.00
32747;BME280;19118;50.860;13.662;2023-02-17T14:04:22;96622.38;;;11.14;100.00
32747;BME280;19118;50.860;13.662;2023-02-17T14:09:30;96635.22;;;11.10;100.00
32747;BME280;19118;50.860;13.662;2023-02-17T14:14:33;96633.19;;;11.12;100.00
32747;BME280;19118;50.860;13.662;2023-02-17T14:19:42;96624.00;;;11.08;100.00
32747;BME280;19118;50.860;13.662;2023-02-17T14:24:42;96630.75;;;11.04;100.00
32747;BME280;19118;50.860;13.662;2023-02-17T14:29:45;96621.19;;;11.03;100.00
32747;BME280;19118;50.860;13.662;2023-02-17T14:34:46;96610.63;;;11.03;100.00
32747;BME280;19118;50.860;13.662;2023-02-17T14:39:46;96607.16;;;11.02;100.00
32747;BME280;19118;50.860;13.662;2023-02-17T14:44:47;96602.25;;;11.06;100.00
32747;BME280;19118;50.860;13.662;2023-02-17T14:49:47;96583.16;;;10.97;100.00
32747;BME280;19118;50.860;13.662;2023-02-17T14:54:48;96591.94;;;10.85;100.00
32747;BME280;19118;50.860;13.662;2023-02-17T14:59:48;96588.09;;;10.81;100.00
32747;BME280;19118;50.860;13.662;2023-02-17T15:04:49;96593.81;;;10.77;100.00
32747;BME280;19118;50.860;13.662;2023-02-17T15:09:49;96594.03;;;10.76;100.00
32747;BME280;19118;50.860;13.662;2023-02-17T15:14:49;96602.56;;;10.71;100.00
32747;BME280;19118;50.860;13.662;2023-02-17T15:19:50;96592.63;;;10.60;100.00
32747;BME280;19118;50.860;13.662;2023-02-17T15:24:50;96608.47;;;10.73;100.00
32747;BME280;19118;50.860;13.662;2023-02-17T15:29:50;96603.97;;;10.74;100.00
32747;BME280;19118;50.860;13.662;2023-02-17T15:34:51;96611.16;;;10.60;100.00
32747;BME280;19118;50.860;13.662;2023-02-17T15:39:51;96607.69;;;10.53;100.00
32747;BME280;19118;50.860;13.662;2023-02-17T15:44:51;96617.28;;;10.41;100.00
32747;BME280;19118;50.860;13.662;2023-02-17T15:49:52;96636.00;;;10.39;100.00
32747;BME280;19118;50.860;13.662;2023-02-17T15:54:52;96605.69;;;10.29;100.00
32747;BME280;19118;50.860;13.662;2023-02-17T15:59:53;96633.75;;;10.30;100.00
32747;BME280;19118;50.860;13.662;2023-02-17T16:04:54;96617.47;;;10.13;100.00
32747;BME280;19118;50.860;13.662;2023-02-17T16:09:54;96619.69;;;9.96;100.00
32747;BME280;19118;50.860;13.662;2023-02-17T16:14:55;96625.78;;;9.83;100.00
32747;BME280;19118;50.860;13.662;2023-02-17T16:19:56;96618.69;;;9.77;100.00
32747;BME280;19118;50.860;13.662;2023-02-17T16:24:56;96630.03;;;9.71;100.00
32747;BME280;19118;50.860;13.662;2023-02-17T16:29:57;96620.91;;;9.67;100.00
32747;BME280;19118;50.860;13.662;2023-02-17T16:34:57;96612.78;;;9.55;100.00
32747;BME280;19118;50.860;13.662;2023-02-17T16:39:58;96622.72;;;9.53;100.00
32747;BME280;19118;50.860;13.662;2023-02-17T16:44:58;96617.81;;;9.50;100.00
32747;BME280;19118;50.860;13.662;2023-02-17T16:49:58;96631.47;;;9.67;100.00
32747;BME280;19118;50.860;13.662;2023-02-17T16:54:59;96621.94;;;9.79;100.00
32747;BME280;19118;50.860;13.662;2023-02-17T16:59:59;96620.72;;;9.82;100.00
32747;BME280;19118;50.860;13.662;2023-02-17T17:05:00;96608.13;;;9.64;100.00
32747;BME280;19118;50.860;13.662;2023-02-17T17:10:00;96617.00;;;9.50;100.00
32747;BME280;19118;50.860;13.662;2023-02-17T17:15:00;96618.06;;;9.55;100.00
32747;BME280;19118;50.860;13.662;2023-02-17T17:20:01;96587.22;;;9.76;100.00
32747;BME280;19118;50.860;13.662;2023-02-17T17:25:01;96589.44;;;9.66;100.00
32747;BME280;19118;50.860;13.662;2023-02-17T17:30:03;96601.41;;;9.81;100.00
32747;BME280;19118;50.860;13.662;2023-02-17T17:35:04;96587.03;;;9.97;100.00
32747;BME280;19118;50.860;13.662;2023-02-17T17:40:05;96603.06;;;10.02;100.00
32747;BME280;19118;50.860;13.662;2023-02-17T17:45:06;96588.63;;;10.11;100.00
32747;BME280;19118;50.860;13.662;2023-02-17T17:50:10;96608.94;;;10.17;100.00
32747;BME280;19118;50.860;13.662;2023-02-17T17:55:12;96612.00;;;10.28;100.00
32747;BME280;19118;50.860;13.662;2023-02-17T18:00:14;96635.00;;;10.34;100.00
32747;BME280;19118;50.860;13.662;2023-02-17T18:05:18;96654.69;;;10.38;100.00
32747;BME280;19118;50.860;13.662;2023-02-17T18:10:18;96639.44;;;10.40;100.00
32747;BME280;19118;50.860;13.662;2023-02-17T18:15:19;96632.75;;;10.37;100.00
32747;BME280;19118;50.860;13.662;2023-02-17T18:20:19;96643.09;;;10.52;100.00
32747;BME280;19118;50.860;13.662;2023-02-17T18:25:20;96678.69;;;10.56;100.00
32747;BME280;19118;50.860;13.662;2023-02-17T18:30:21;96679.28;;;10.52;100.00
32747;BME280;19118;50.860;13.662;2023-02-17T18:35:22;96677.28;;;10.54;100.00
32747;BME280;19118;50.860;13.662;2023-02-17T18:40:23;96674.81;;;10.52;100.00
32747;BME280;19118;50.860;13.662;2023-02-17T18:45:25;96677.69;;;10.44;100.00
32747;BME280;19118;50.860;13.662;2023-02-17T18:50:25;96693.31;;;10.39;100.00
32747;BME280;19118;50.860;13.662;2023-02-17T18:55:25;96709.59;;;10.36;100.00
32747;BME280;19118;50.860;13.662;2023-02-17T19:00:27;96679.31;;;10.32;100.00
32747;BME280;19118;50.860;13.662;2023-02-17T19:05:28;96686.81;;;10.28;100.00
32747;BME280;19118;50.860;13.662;2023-02-17T19:10:28;96701.22;;;10.19;100.00
32747;BME280;19118;50.860;13.662;2023-02-17T19:15:28;96724.16;;;10.05;100.00
32747;BME280;19118;50.860;13.662;2023-02-17T19:20:29;96776.94;;;9.38;100.00
32747;BME280;19118;50.860;13.662;2023-02-17T19:25:30;96812.97;;;8.89;100.00
32747;BME280;19118;50.860;13.662;2023-02-17T19:30:30;96844.13;;;8.79;100.00
32747;BME280;19118;50.860;13.662;2023-02-17T19:35:31;96870.59;;;8.71;100.00
32747;BME280;19118;50.860;13.662;2023-02-17T19:40:33;96910.72;;;8.66;100.00
32747;BME280;19118;50.860;13.662;2023-02-17T19:45:33;96929.22;;;8.52;100.00
32747;BME280;19118;50.860;13.662;2023-02-17T19:50:36;96947.38;;;8.46;100.00
32747;BME280;19118;50.860;13.662;2023-02-17T19:55:36;96972.31;;;8.29;100.00
32747;BME280;19118;50.860;13.662;2023-02-17T20:00:37;96957.41;;;8.07;100.00
32747;BME280;19118;50.860;13.662;2023-02-17T20:05:40;96970.47;;;8.15;100.00
32747;BME280;19118;50.860;13.662;2023-02-17T20:10:41;96984.19;;;8.25;100.00
32747;BME280;19118;50.860;13.662;2023-02-17T20:15:41;96973.94;;;8.30;100.00
32747;BME280;19118;50.860;13.662;2023-02-17T20:20:41;96986.38;;;8.36;100.00
32747;BME280;19118;50.860;13.662;2023-02-17T20:25:50;96944.22;;;8.36;100.00
32747;BME280;19118;50.860;13.662;2023-02-17T20:30:50;96930.44;;;8.34;100.00
32747;BME280;19118;50.860;13.662;2023-02-17T20:35:51;96918.78;;;8.29;100.00
32747;BME280;19118;50.860;13.662;2023-02-17T20:40:51;96907.06;;;8.31;100.00
32747;BME280;19118;50.860;13.662;2023-02-17T20:45:52;96898.16;;;8.32;100.00
32747;BME280;19118;50.860;13.662;2023-02-17T20:50:54;96900.78;;;8.32;100.00
32747;BME280;19118;50.860;13.662;2023-02-17T20:55:57;96881.34;;;8.33;100.00
32747;BME280;19118;50.860;13.662;2023-02-17T21:00:58;96874.81;;;8.29;100.00
32747;BME280;19118;50.860;13.662;2023-02-17T21:06:00;96867.75;;;8.30;100.00
32747;BME280;19118;50.860;13.662;2023-02-17T21:11:01;96866.84;;;8.23;100.00
32747;BME280;19118;50.860;13.662;2023-02-17T21:16:01;96862.06;;;8.11;100.00
32747;BME280;19118;50.860;13.662;2023-02-17T21:21:02;96861.00;;;8.06;100.00
32747;BME280;19118;50.860;13.662;2023-02-17T21:26:05;96870.25;;;8.02;100.00
32747;BME280;19118;50.860;13.662;2023-02-17T21:31:06;96859.94;;;7.85;100.00
32747;BME280;19118;50.860;13.662;2023-02-17T21:36:24;96879.91;;;7.65;100.00
32747;BME280;19118;50.860;13.662;2023-02-17T21:41:25;96880.09;;;7.49;100.00
32747;BME280;19118;50.860;13.662;2023-02-17T21:46:27;96902.59;;;7.37;100.00
32747;BME280;19118;50.860;13.662;2023-02-17T21:51:29;96909.47;;;7.38;100.00
32747;BME280;19118;50.860;13.662;2023-02-17T21:56:29;96930.16;;;7.41;100.00
32747;BME280;19118;50.860;13.662;2023-02-17T22:01:30;96930.34;;;7.54;100.00
32747;BME280;19118;50.860;13.662;2023-02-17T22:06:34;96933.81;;;7.69;100.00
32747;BME280;19118;50.860;13.662;2023-02-17T22:11:37;96917.84;;;7.85;100.00
32747;BME280;19118;50.860;13.662;2023-02-17T22:16:38;96915.47;;;7.91;100.00
32747;BME280;19118;50.860;13.662;2023-02-17T22:21:39;96913.84;;;7.89;100.00
32747;BME280;19118;50.860;13.662;2023-02-17T22:26:40;96917.75;;;7.94;100.00
32747;BME280;19118;50.860;13.662;2023-02-17T22:31:40;96933.56;;;7.94;100.00
32747;BME280;19118;50.860;13.662;2023-02-17T22:36:41;96921.22;;;7.94;100.00
32747;BME280;19118;50.860;13.662;2023-02-17T22:41:41;96913.13;;;7.96;100.00
32747;BME280;19118;50.860;13.662;2023-02-17T22:46:41;96918.44;;;8.02;100.00
32747;BME280;19118;50.860;13.662;2023-02-17T22:51:42;96924.53;;;8.03;100.00
32747;BME280;19118;50.860;13.662;2023-02-17T22:56:42;96945.25;;;8.06;100.00
32747;BME280;19118;50.860;13.662;2023-02-17T23:01:42;96944.59;;;8.04;100.00
32747;BME280;19118;50.860;13.662;2023-02-17T23:06:43;96941.50;;;7.56;100.00
32747;BME280;19118;50.860;13.662;2023-02-17T23:11:44;96951.84;;;7.57;100.00
32747;BME280;19118;50.860;13.662;2023-02-17T23:16:56;96976.44;;;7.50;100.00
32747;BME280;19118;50.860;13.662;2023-02-17T23:22:00;96993.34;;;7.33;100.00
32747;BME280;19118;50.860;13.662;2023-02-17T23:27:01;97003.25;;;7.30;100.00
32747;BME280;19118;50.860;13.662;2023-02-17T23:32:03;97012.50;;;7.26;100.00
32747;BME280;19118;50.860;13.662;2023-02-17T23:37:03;97022.94;;;7.35;100.00
32747;BME280;19118;50.860;13.662;2023-02-17T23:42:04;97024.91;;;7.33;100.00
32747;BME280;19118;50.860;13.662;2023-02-17T23:47:04;97053.66;;;7.34;100.00
32747;BME280;19118;50.860;13.662;2023-02-17T23:52:04;97053.34;;;7.37;100.00
32747;BME280;19118;50.860;13.662;2023-02-17T23:57:05;97059.69;;;7.43;100.00
